Time;durP1;ratioP1;P1;durP2;ratioP2;P2;SDS_P1;SDS_P2;PMS_P1;PMS_P2;Temp;Humidity;BMP_temperature;BMP_pressure;BME280_temperature;BME280_humidity;BME280_pressure;Samples;Min_cycle;Max_cycle;Signal;HPM_P1;HPM_P2
2021/06/15 00:01:10;;;;;;;2.41;1.43;;;;;;;20.97;62.33;100584.08;;;;-61
2021/06/15 00:04:10;;;;;;;2.59;1.52;;;;;;;20.96;62.34;100583.77;;;;-61
2021/06/15 00:07:10;;;;;;;3.42;1.47;;;;;;;20.95;62.38;100582.69;;;;-61
2021/06/15 00:10:10;;;;;;;2.01;1.55;;;;;;;20.96;62.35;100591.34;;;;-61
2021/06/15 00:13:10;;;;;;;1.49;1.38;;;;;;;20.95;62.35;100588.71;;;;-61
2021/06/15 00:16:10;;;;;;;1.92;1.40;;;;;;;20.94;62.40;100586.20;;;;-61
2021/06/15 00:19:10;;;;;;;1.78;1.40;;;;;;;20.94;62.38;100587.00;;;;-62
2021/06/15 00:22:10;;;;;;;2.01;1.47;;;;;;;20.93;62.36;100585.94;;;;-61
2021/06/15 00:25:10;;;;;;;2.79;1.41;;;;;;;20.93;62.38;100586.36;;;;-60
2021/06/15 00:28:10;;;;;;;1.63;1.40;;;;;;;20.93;62.39;100586.68;;;;-60
2021/06/15 00:31:10;;;;;;;1.63;1.44;;;;;;;20.92;62.35;100588.64;;;;-61
2021/06/15 00:34:10;;;;;;;3.71;1.47;;;;;;;20.92;62.33;100586.34;;;;-61
2021/06/15 00:37:10;;;;;;;2.89;1.40;;;;;;;20.91;62.39;100588.88;;;;-61
2021/06/15 00:40:10;;;;;;;2.70;1.40;;;;;;;20.91;62.40;100586.43;;;;-61
2021/06/15 00:43:10;;;;;;;1.77;1.37;;;;;;;20.90;62.39;100580.73;;;;-55
2021/06/15 00:46:10;;;;;;;1.79;1.47;;;;;;;20.89;62.41;100580.47;;;;-56
2021/06/15 00:49:10;;;;;;;1.60;1.45;;;;;;;20.89;62.39;100589.44;;;;-56
2021/06/15 00:52:10;;;;;;;2.23;1.54;;;;;;;20.89;62.40;100590.09;;;;-56
2021/06/15 00:55:10;;;;;;;2.15;1.41;;;;;;;20.88;62.33;100587.98;;;;-54
2021/06/15 00:58:10;;;;;;;1.63;1.50;;;;;;;20.88;62.39;100584.64;;;;-54
2021/06/15 01:01:10;;;;;;;1.89;1.34;;;;;;;20.87;62.38;100578.67;;;;-61
2021/06/15 01:04:10;;;;;;;1.64;1.36;;;;;;;20.87;62.40;100579.90;;;;-56
2021/06/15 01:07:10;;;;;;;1.75;1.40;;;;;;;20.87;62.39;100580.31;;;;-57
2021/06/15 01:10:10;;;;;;;1.50;1.38;;;;;;;20.86;62.42;100576.33;;;;-56
2021/06/15 01:13:10;;;;;;;1.59;1.36;;;;;;;20.86;62.38;100576.00;;;;-56
2021/06/15 01:16:10;;;;;;;2.03;1.47;;;;;;;20.85;62.36;100576.80;;;;-56
2021/06/15 01:19:10;;;;;;;1.74;1.36;;;;;;;20.86;62.38;100579.42;;;;-56
2021/06/15 01:22:10;;;;;;;1.69;1.44;;;;;;;20.85;62.36;100580.38;;;;-62
2021/06/15 01:25:10;;;;;;;1.93;1.51;;;;;;;20.85;62.42;100582.66;;;;-61
2021/06/15 01:28:10;;;;;;;1.63;1.49;;;;;;;20.85;62.38;100578.11;;;;-60
2021/06/15 01:31:10;;;;;;;1.99;1.38;;;;;;;20.84;62.43;100573.71;;;;-61
2021/06/15 01:34:10;;;;;;;1.94;1.60;;;;;;;20.83;62.37;100572.72;;;;-61
2021/06/15 01:37:10;;;;;;;2.15;1.40;;;;;;;20.83;62.42;100576.95;;;;-61
2021/06/15 01:40:13;;;;;;;2.13;1.46;;;;;;;20.83;62.40;100580.30;;;;-61
2021/06/15 01:43:10;;;;;;;1.75;1.40;;;;;;;20.82;62.38;100579.57;;;;-55
2021/06/15 01:46:10;;;;;;;1.54;1.44;;;;;;;20.81;62.41;100581.91;;;;-56
2021/06/15 01:49:13;;;;;;;1.79;1.67;;;;;;;20.82;62.41;100579.98;;;;-54
2021/06/15 01:52:10;;;;;;;2.75;1.51;;;;;;;20.81;62.37;100577.84;;;;-54
2021/06/15 01:55:10;;;;;;;1.60;1.48;;;;;;;20.81;62.39;100579.87;;;;-54
2021/06/15 01:58:10;;;;;;;1.61;1.46;;;;;;;20.81;62.42;100579.72;;;;-54
2021/06/15 02:01:10;;;;;;;1.85;1.49;;;;;;;20.80;62.40;100577.28;;;;-54
2021/06/15 02:04:10;;;;;;;1.60;1.50;;;;;;;20.79;62.41;100581.41;;;;-61
2021/06/15 02:07:12;;;;;;;1.49;1.39;;;;;;;20.80;62.40;100578.67;;;;-61
2021/06/15 02:10:10;;;;;;;1.71;1.43;;;;;;;20.79;62.40;100574.91;;;;-61
2021/06/15 02:13:10;;;;;;;1.86;1.50;;;;;;;20.78;62.43;100575.97;;;;-62
2021/06/15 02:16:10;;;;;;;1.53;1.43;;;;;;;20.78;62.44;100579.80;;;;-60
2021/06/15 02:19:10;;;;;;;1.83;1.43;;;;;;;20.78;62.40;100583.30;;;;-60
2021/06/15 02:22:10;;;;;;;1.57;1.43;;;;;;;20.78;62.42;100580.95;;;;-62
2021/06/15 02:25:10;;;;;;;1.59;1.49;;;;;;;20.77;62.35;100576.23;;;;-61
2021/06/15 02:28:10;;;;;;;1.51;1.41;;;;;;;20.77;62.40;100574.73;;;;-61
2021/06/15 02:31:10;;;;;;;1.74;1.50;;;;;;;20.77;62.42;100580.52;;;;-60
2021/06/15 02:34:10;;;;;;;1.61;1.49;;;;;;;20.77;62.39;100576.05;;;;-60
2021/06/15 02:37:10;;;;;;;1.74;1.59;;;;;;;20.76;62.40;100579.14;;;;-61
2021/06/15 02:40:10;;;;;;;1.64;1.40;;;;;;;20.76;62.42;100575.31;;;;-61
2021/06/15 02:43:10;;;;;;;1.73;1.48;;;;;;;20.76;62.42;100577.84;;;;-61
2021/06/15 02:46:10;;;;;;;1.68;1.57;;;;;;;20.75;62.32;100578.25;;;;-61
2021/06/15 02:49:10;;;;;;;1.88;1.50;;;;;;;20.74;62.41;100575.95;;;;-61
2021/06/15 02:52:10;;;;;;;1.52;1.40;;;;;;;20.74;62.44;100569.28;;;;-61
2021/06/15 02:55:10;;;;;;;1.87;1.51;;;;;;;20.75;62.41;100571.64;;;;-61
2021/06/15 02:58:10;;;;;;;1.63;1.53;;;;;;;20.74;62.42;100573.11;;;;-61
2021/06/15 03:01:10;;;;;;;1.68;1.55;;;;;;;20.73;62.42;100571.70;;;;-61
2021/06/15 03:04:10;;;;;;;2.27;1.67;;;;;;;20.73;62.48;100573.66;;;;-61
2021/06/15 03:07:10;;;;;;;1.51;1.41;;;;;;;20.73;62.41;100573.83;;;;-61
2021/06/15 03:10:10;;;;;;;2.23;1.53;;;;;;;20.73;62.41;100576.05;;;;-61
2021/06/15 03:13:10;;;;;;;2.03;1.60;;;;;;;20.72;62.38;100575.87;;;;-61
2021/06/15 03:16:10;;;;;;;2.54;1.51;;;;;;;20.72;62.44;100578.23;;;;-61
2021/06/15 03:19:10;;;;;;;1.63;1.53;;;;;;;20.72;62.43;100578.64;;;;-56
2021/06/15 03:22:10;;;;;;;1.80;1.46;;;;;;;20.72;62.44;100583.05;;;;-55
2021/06/15 03:25:10;;;;;;;1.60;1.50;;;;;;;20.71;62.43;100585.25;;;;-57
2021/06/15 03:28:10;;;;;;;1.59;1.49;;;;;;;20.71;62.41;100581.48;;;;-56
2021/06/15 03:31:10;;;;;;;1.69;1.51;;;;;;;20.71;62.43;100588.48;;;;-57
2021/06/15 03:34:10;;;;;;;1.49;1.38;;;;;;;20.71;62.40;100585.01;;;;-56
2021/06/15 03:37:10;;;;;;;1.69;1.59;;;;;;;20.71;62.33;100582.86;;;;-61
2021/06/15 03:40:10;;;;;;;2.20;1.51;;;;;;;20.70;62.44;100586.37;;;;-61
2021/06/15 03:43:10;;;;;;;1.83;1.44;;;;;;;20.69;62.43;100584.67;;;;-61
2021/06/15 03:46:10;;;;;;;1.96;1.59;;;;;;;20.69;62.39;100585.48;;;;-61
2021/06/15 03:49:10;;;;;;;1.57;1.47;;;;;;;20.69;62.36;100588.02;;;;-61
2021/06/15 03:52:10;;;;;;;1.60;1.50;;;;;;;20.68;62.41;100589.20;;;;-61
2021/06/15 03:55:10;;;;;;;1.68;1.58;;;;;;;20.68;62.39;100593.85;;;;-61
2021/06/15 03:58:10;;;;;;;1.60;1.50;;;;;;;20.68;62.44;100591.01;;;;-61
2021/06/15 04:01:10;;;;;;;1.69;1.58;;;;;;;20.67;62.39;100587.11;;;;-61
2021/06/15 04:04:11;;;;;;;1.69;1.50;;;;;;;20.68;62.33;100595.00;;;;-61
2021/06/15 04:07:13;;;;;;;2.11;1.58;;;;;;;20.67;62.40;100596.23;;;;-61
2021/06/15 04:10:10;;;;;;;1.75;1.53;;;;;;;20.66;62.37;100595.72;;;;-61
2021/06/15 04:13:10;;;;;;;1.67;1.57;;;;;;;20.66;62.45;100597.75;;;;-61
2021/06/15 04:16:12;;;;;;;1.88;1.62;;;;;;;20.66;62.41;100600.77;;;;-61
2021/06/15 04:19:10;;;;;;;1.57;1.47;;;;;;;20.66;62.40;100603.53;;;;-61
2021/06/15 04:22:10;;;;;;;1.59;1.49;;;;;;;20.66;62.38;100602.81;;;;-61
2021/06/15 04:25:10;;;;;;;1.60;1.50;;;;;;;20.65;62.35;100604.58;;;;-60
2021/06/15 04:28:10;;;;;;;1.63;1.52;;;;;;;20.65;62.33;100606.23;;;;-61
2021/06/15 04:31:10;;;;;;;1.83;1.50;;;;;;;20.64;62.39;100605.31;;;;-61
2021/06/15 04:34:10;;;;;;;2.46;1.62;;;;;;;20.65;62.33;100602.09;;;;-61
2021/06/15 04:37:10;;;;;;;1.58;1.48;;;;;;;20.65;62.44;100602.58;;;;-61
2021/06/15 04:40:10;;;;;;;1.64;1.54;;;;;;;20.65;62.40;100602.95;;;;-61
2021/06/15 04:43:10;;;;;;;1.74;1.59;;;;;;;20.64;62.34;100608.01;;;;-60
2021/06/15 04:46:10;;;;;;;1.68;1.56;;;;;;;20.64;62.34;100608.75;;;;-60
2021/06/15 04:49:10;;;;;;;1.52;1.42;;;;;;;20.64;62.33;100615.83;;;;-61
2021/06/15 04:52:12;;;;;;;1.52;1.42;;;;;;;20.63;62.38;100619.58;;;;-61
2021/06/15 04:55:10;;;;;;;1.62;1.52;;;;;;;20.63;62.26;100624.05;;;;-61
2021/06/15 04:58:10;;;;;;;1.50;1.40;;;;;;;20.62;62.33;100623.22;;;;-61
2021/06/15 05:01:10;;;;;;;1.93;1.61;;;;;;;20.62;62.30;100621.68;;;;-61
2021/06/15 05:04:10;;;;;;;1.68;1.58;;;;;;;20.62;62.30;100624.28;;;;-60
2021/06/15 05:07:10;;;;;;;1.79;1.62;;;;;;;20.62;62.31;100627.14;;;;-56
2021/06/15 05:10:10;;;;;;;1.67;1.50;;;;;;;20.61;62.34;100629.42;;;;-55
2021/06/15 05:13:10;;;;;;;1.56;1.46;;;;;;;20.62;62.35;100636.34;;;;-56
2021/06/15 05:16:10;;;;;;;1.60;1.50;;;;;;;20.61;62.33;100637.48;;;;-55
2021/06/15 05:19:10;;;;;;;1.78;1.65;;;;;;;20.61;62.31;100638.87;;;;-55
2021/06/15 05:22:10;;;;;;;1.48;1.38;;;;;;;20.61;62.55;100639.12;;;;-52
2021/06/15 05:25:10;;;;;;;3.27;2.97;;;;;;;20.61;61.96;100635.53;;;;-51
2021/06/15 05:28:10;;;;;;;6.08;3.59;;;;;;;20.57;62.21;100641.59;;;;-50
2021/06/15 05:31:10;;;;;;;6.05;3.64;;;;;;;20.52;62.22;100637.56;;;;-51
2021/06/15 05:34:10;;;;;;;5.71;3.47;;;;;;;20.47;62.56;100635.34;;;;-51
2021/06/15 05:37:10;;;;;;;5.47;3.75;;;;;;;20.48;62.49;100635.17;;;;-53
2021/06/15 05:40:10;;;;;;;4.69;3.59;;;;;;;20.47;62.62;100638.36;;;;-51
2021/06/15 05:43:10;;;;;;;4.57;3.50;;;;;;;20.44;62.66;100643.73;;;;-51
2021/06/15 05:46:10;;;;;;;7.93;3.43;;;;;;;20.40;62.85;100640.83;;;;-52
2021/06/15 05:49:11;;;;;;;8.19;3.49;;;;;;;20.45;62.77;100645.52;;;;-51
2021/06/15 05:52:10;;;;;;;4.25;3.41;;;;;;;20.46;62.74;100647.70;;;;-52
2021/06/15 05:55:11;;;;;;;4.93;3.36;;;;;;;20.49;62.63;100653.34;;;;-52
2021/06/15 05:58:11;;;;;;;4.47;3.22;;;;;;;20.51;62.50;100650.44;;;;-52
2021/06/15 06:01:10;;;;;;;4.16;3.31;;;;;;;20.53;62.56;100656.63;;;;-52
2021/06/15 06:04:12;;;;;;;5.39;3.33;;;;;;;20.54;62.45;100654.02;;;;-52
2021/06/15 06:10:10;;;;;;;4.23;3.22;;;;;;;20.56;62.41;100645.48;;;;-51
2021/06/15 06:13:12;;;;;;;6.77;3.27;;;;;;;20.58;62.40;100653.14;;;;-51
2021/06/15 06:16:12;;;;;;;5.61;3.22;;;;;;;20.58;62.42;100653.33;;;;-52
2021/06/15 06:19:10;;;;;;;3.63;3.11;;;;;;;20.59;62.39;100651.08;;;;-51
2021/06/15 06:22:10;;;;;;;4.31;3.25;;;;;;;20.59;62.43;100653.03;;;;-52
2021/06/15 06:25:11;;;;;;;5.64;3.24;;;;;;;20.60;62.46;100653.75;;;;-52
2021/06/15 06:28:10;;;;;;;10.46;3.35;;;;;;;20.61;62.60;100658.31;;;;-52
2021/06/15 06:31:10;;;;;;;3.87;3.27;;;;;;;20.61;62.44;100660.91;;;;-52
2021/06/15 06:34:10;;;;;;;5.82;3.02;;;;;;;20.60;62.41;100664.02;;;;-52
2021/06/15 06:37:10;;;;;;;3.93;2.97;;;;;;;20.60;62.38;100664.75;;;;-52
2021/06/15 06:40:10;;;;;;;4.71;3.05;;;;;;;20.59;62.37;100663.61;;;;-52
2021/06/15 06:43:10;;;;;;;4.29;3.16;;;;;;;20.60;62.38;100665.64;;;;-52
2021/06/15 06:46:10;;;;;;;3.71;3.00;;;;;;;20.59;62.36;100662.64;;;;-52
2021/06/15 06:49:10;;;;;;;4.78;2.94;;;;;;;20.59;62.38;100664.18;;;;-52
2021/06/15 06:52:10;;;;;;;4.63;3.15;;;;;;;20.59;62.30;100663.78;;;;-52
2021/06/15 06:55:10;;;;;;;5.26;2.93;;;;;;;20.59;62.37;100667.69;;;;-52
2021/06/15 06:58:10;;;;;;;5.29;3.04;;;;;;;20.59;62.29;100667.69;;;;-56
2021/06/15 07:01:10;;;;;;;4.13;2.77;;;;;;;20.59;62.35;100670.13;;;;-57
2021/06/15 07:04:10;;;;;;;6.52;3.03;;;;;;;20.59;62.35;100668.67;;;;-55
2021/06/15 07:07:11;;;;;;;4.48;3.09;;;;;;;20.59;62.36;100664.27;;;;-57
2021/06/15 07:10:10;;;;;;;3.83;2.99;;;;;;;20.58;62.30;100664.08;;;;-56
2021/06/15 07:13:10;;;;;;;5.28;3.03;;;;;;;20.59;62.31;100672.98;;;;-57
2021/06/15 07:16:10;;;;;;;3.18;2.88;;;;;;;20.58;62.30;100672.14;;;;-57
2021/06/15 07:19:10;;;;;;;3.61;2.64;;;;;;;20.58;62.30;100674.58;;;;-57
2021/06/15 07:22:10;;;;;;;4.02;3.01;;;;;;;20.59;62.28;100668.83;;;;-57
2021/06/15 07:25:10;;;;;;;3.13;2.83;;;;;;;20.59;62.26;100669.96;;;;-51
2021/06/15 07:28:10;;;;;;;4.11;2.77;;;;;;;20.59;62.22;100665.57;;;;-57
2021/06/15 07:31:10;;;;;;;3.47;2.81;;;;;;;20.59;62.26;100667.36;;;;-52
2021/06/15 07:34:10;;;;;;;3.23;2.80;;;;;;;20.58;62.25;100665.80;;;;-51
2021/06/15 07:37:10;;;;;;;3.03;2.73;;;;;;;20.58;62.23;100665.71;;;;-51
2021/06/15 07:40:10;;;;;;;3.13;2.71;;;;;;;20.58;62.40;100665.88;;;;-51
2021/06/15 07:43:10;;;;;;;3.24;2.83;;;;;;;20.60;62.39;100663.36;;;;-51
2021/06/15 07:46:10;;;;;;;5.44;2.89;;;;;;;20.60;62.61;100660.75;;;;-50
2021/06/15 07:49:10;;;;;;;9.87;3.08;;;;;;;20.64;62.65;100660.13;;;;-49
2021/06/15 07:52:10;;;;;;;10.38;2.87;;;;;;;20.66;62.62;100670.23;;;;-49
2021/06/15 07:55:10;;;;;;;8.42;2.95;;;;;;;20.67;62.86;100660.08;;;;-50
2021/06/15 07:58:12;;;;;;;9.87;2.99;;;;;;;20.68;63.10;100663.48;;;;-49
2021/06/15 08:01:10;;;;;;;9.63;3.27;;;;;;;20.68;62.90;100662.27;;;;-49
2021/06/15 08:04:15;;;;;;;11.01;3.01;;;;;;;20.69;63.26;100657.20;;;;-51
2021/06/15 08:07:10;;;;;;;8.87;3.14;;;;;;;20.70;63.31;100656.00;;;;-51
2021/06/15 08:10:10;;;;;;;11.40;3.21;;;;;;;20.71;63.40;100654.61;;;;-55
2021/06/15 08:13:10;;;;;;;4.97;2.75;;;;;;;20.72;63.41;100657.64;;;;-48
2021/06/15 08:16:10;;;;;;;10.21;3.44;;;;;;;20.73;63.29;100652.45;;;;-51
2021/06/15 08:19:10;;;;;;;13.27;3.28;;;;;;;20.76;63.59;100649.02;;;;-50
2021/06/15 08:22:10;;;;;;;5.97;2.98;;;;;;;20.79;63.57;100645.61;;;;-49
2021/06/15 08:25:10;;;;;;;9.56;2.85;;;;;;;20.82;63.70;100643.27;;;;-51
2021/06/15 08:28:10;;;;;;;5.35;2.86;;;;;;;20.84;63.71;100644.01;;;;-57
2021/06/15 08:31:10;;;;;;;8.39;3.06;;;;;;;20.85;63.67;100641.64;;;;-61
2021/06/15 08:34:11;;;;;;;5.55;2.95;;;;;;;20.85;63.71;100644.58;;;;-51
2021/06/15 08:37:10;;;;;;;6.11;2.97;;;;;;;20.85;63.67;100648.88;;;;-47
2021/06/15 08:40:10;;;;;;;7.46;2.95;;;;;;;20.86;63.42;100644.75;;;;-53
2021/06/15 08:43:10;;;;;;;10.53;3.26;;;;;;;20.88;63.66;100649.40;;;;-54
2021/06/15 08:46:10;;;;;;;7.96;3.37;;;;;;;20.89;63.65;100643.52;;;;-50
2021/06/15 08:49:10;;;;;;;7.42;2.97;;;;;;;20.89;63.79;100644.83;;;;-52
2021/06/15 08:52:10;;;;;;;11.00;3.13;;;;;;;20.89;63.62;100652.41;;;;-53
2021/06/15 08:55:10;;;;;;;12.71;3.30;;;;;;;20.88;63.62;100659.59;;;;-53
2021/06/15 08:58:10;;;;;;;9.31;3.03;;;;;;;20.87;63.64;100662.58;;;;-54
2021/06/15 09:01:11;;;;;;;6.82;2.93;;;;;;;20.87;63.58;100656.47;;;;-51
2021/06/15 09:04:10;;;;;;;8.65;3.15;;;;;;;20.86;63.47;100654.69;;;;-51
2021/06/15 09:07:10;;;;;;;5.36;3.15;;;;;;;20.85;63.45;100651.66;;;;-51
2021/06/15 09:10:10;;;;;;;6.89;2.87;;;;;;;20.86;63.40;100655.84;;;;-51
2021/06/15 09:13:10;;;;;;;9.14;3.07;;;;;;;20.85;63.43;100648.39;;;;-52
2021/06/15 09:16:10;;;;;;;9.35;2.91;;;;;;;20.87;63.31;100647.34;;;;-59
2021/06/15 09:19:10;;;;;;;6.97;2.79;;;;;;;20.87;63.31;100649.55;;;;-47
2021/06/15 09:22:10;;;;;;;10.62;3.28;;;;;;;20.88;63.31;100645.66;;;;-49
2021/06/15 09:25:10;;;;;;;6.53;2.86;;;;;;;20.89;63.30;100643.77;;;;-49
2021/06/15 09:28:10;;;;;;;5.99;2.67;;;;;;;20.90;63.24;100642.33;;;;-49
2021/06/15 09:31:10;;;;;;;6.45;2.93;;;;;;;20.91;63.28;100638.81;;;;-49
2021/06/15 09:34:10;;;;;;;7.11;2.79;;;;;;;20.93;63.42;100638.66;;;;-52
2021/06/15 09:37:10;;;;;;;4.87;2.57;;;;;;;20.92;63.18;100630.68;;;;-53
2021/06/15 09:40:10;;;;;;;6.56;2.97;;;;;;;20.91;63.14;100629.77;;;;-59
2021/06/15 09:43:10;;;;;;;7.11;2.60;;;;;;;20.93;63.22;100636.38;;;;-53
2021/06/15 09:46:10;;;;;;;6.15;2.82;;;;;;;20.94;63.18;100636.55;;;;-58
2021/06/15 09:49:12;;;;;;;7.45;2.80;;;;;;;20.94;63.24;100636.47;;;;-57
2021/06/15 09:52:10;;;;;;;7.83;2.77;;;;;;;20.96;63.26;100632.24;;;;-50
2021/06/15 09:55:10;;;;;;;8.31;2.89;;;;;;;20.97;63.22;100630.20;;;;-48
2021/06/15 09:58:11;;;;;;;6.27;2.50;;;;;;;20.97;63.20;100627.34;;;;-55
2021/06/15 10:01:10;;;;;;;4.23;2.63;;;;;;;20.97;63.19;100625.71;;;;-58
2021/06/15 10:04:10;;;;;;;8.21;2.61;;;;;;;20.98;63.19;100628.17;;;;-58
2021/06/15 10:07:10;;;;;;;7.69;2.79;;;;;;;20.99;63.25;100629.06;;;;-54
2021/06/15 10:10:10;;;;;;;12.20;2.81;;;;;;;21.00;63.26;100624.59;;;;-58
2021/06/15 10:13:10;;;;;;;6.08;2.59;;;;;;;21.01;63.24;100626.63;;;;-52
2021/06/15 10:16:10;;;;;;;5.51;2.72;;;;;;;21.01;63.17;100623.94;;;;-53
2021/06/15 10:19:10;;;;;;;4.70;2.69;;;;;;;21.01;63.17;100620.91;;;;-46
2021/06/15 10:22:11;;;;;;;5.84;2.54;;;;;;;21.03;63.08;100620.69;;;;-52
2021/06/15 10:25:10;;;;;;;4.02;2.47;;;;;;;21.03;63.24;100617.92;;;;-50
2021/06/15 10:28:10;;;;;;;4.43;2.70;;;;;;;21.03;63.24;100616.94;;;;-52
2021/06/15 10:31:10;;;;;;;3.55;2.50;;;;;;;21.04;63.14;100617.08;;;;-55
2021/06/15 10:34:10;;;;;;;4.04;2.51;;;;;;;21.04;63.09;100619.96;;;;-52
2021/06/15 10:37:10;;;;;;;5.45;2.64;;;;;;;21.06;63.24;100615.55;;;;-56
2021/06/15 10:40:10;;;;;;;6.83;2.85;;;;;;;21.06;63.11;100613.61;;;;-50
2021/06/15 10:43:11;;;;;;;7.05;2.72;;;;;;;21.06;63.09;100611.80;;;;-54
2021/06/15 10:46:10;;;;;;;5.39;2.55;;;;;;;21.07;63.08;100606.91;;;;-62
2021/06/15 10:49:10;;;;;;;4.33;2.60;;;;;;;21.07;63.10;100614.09;;;;-52
2021/06/15 10:52:10;;;;;;;5.95;2.76;;;;;;;21.08;63.22;100614.48;;;;-51
2021/06/15 10:55:10;;;;;;;3.97;2.63;;;;;;;21.09;63.06;100618.25;;;;-50
2021/06/15 10:58:10;;;;;;;4.74;2.62;;;;;;;21.09;63.11;100614.09;;;;-57
2021/06/15 11:01:10;;;;;;;7.28;2.71;;;;;;;21.11;63.05;100609.63;;;;-54
2021/06/15 11:04:10;;;;;;;6.19;2.48;;;;;;;21.09;62.79;100605.38;;;;-54
2021/06/15 11:07:10;;;;;;;5.09;2.56;;;;;;;21.08;63.05;100607.42;;;;-51
2021/06/15 11:10:10;;;;;;;2.68;2.40;;;;;;;21.08;62.91;100604.87;;;;-52
2021/06/15 11:13:10;;;;;;;3.74;2.63;;;;;;;21.07;63.09;100601.38;;;;-52
2021/06/15 11:16:10;;;;;;;5.44;2.61;;;;;;;21.06;62.96;100596.98;;;;-52
2021/06/15 11:19:10;;;;;;;4.30;2.53;;;;;;;21.06;63.00;100595.58;;;;-53
2021/06/15 11:22:10;;;;;;;6.59;2.51;;;;;;;21.06;62.94;100595.09;;;;-52
2021/06/15 11:25:10;;;;;;;4.94;2.25;;;;;;;21.06;62.91;100588.57;;;;-52
2021/06/15 11:28:10;;;;;;;5.39;2.64;;;;;;;21.05;62.85;100587.77;;;;-52
2021/06/15 11:31:10;;;;;;;4.11;2.41;;;;;;;21.04;62.91;100587.18;;;;-47
2021/06/15 11:34:14;;;;;;;6.32;2.77;;;;;;;21.05;62.86;100587.36;;;;-53
2021/06/15 11:37:10;;;;;;;6.83;2.66;;;;;;;21.05;62.85;100589.41;;;;-50
2021/06/15 11:40:10;;;;;;;3.63;2.45;;;;;;;21.05;62.86;100580.52;;;;-51
2021/06/15 11:43:11;;;;;;;5.49;2.53;;;;;;;21.04;62.86;100573.84;;;;-52
2021/06/15 11:46:10;;;;;;;4.90;2.45;;;;;;;21.04;62.91;100571.13;;;;-57
2021/06/15 11:49:10;;;;;;;3.58;2.61;;;;;;;21.04;62.85;100567.47;;;;-58
2021/06/15 11:52:10;;;;;;;4.58;2.42;;;;;;;21.03;62.80;100564.95;;;;-49
2021/06/15 11:55:10;;;;;;;4.44;2.27;;;;;;;21.03;62.84;100561.52;;;;-53
2021/06/15 11:58:10;;;;;;;3.72;2.53;;;;;;;21.02;62.81;100559.34;;;;-49
2021/06/15 12:01:11;;;;;;;5.91;2.45;;;;;;;21.03;62.81;100564.79;;;;-49
2021/06/15 12:04:10;;;;;;;4.31;2.43;;;;;;;21.02;62.63;100563.95;;;;-52
2021/06/15 12:07:10;;;;;;;4.05;2.42;;;;;;;21.02;62.78;100567.97;;;;-49
2021/06/15 12:10:10;;;;;;;3.82;2.43;;;;;;;21.01;62.69;100563.55;;;;-49
2021/06/15 12:13:10;;;;;;;6.01;2.59;;;;;;;21.02;62.65;100556.63;;;;-51
2021/06/15 12:16:11;;;;;;;5.12;2.41;;;;;;;21.01;62.65;100556.22;;;;-51
2021/06/15 12:19:11;;;;;;;3.44;2.61;;;;;;;21.01;62.66;100555.25;;;;-51
2021/06/15 12:22:10;;;;;;;4.27;2.80;;;;;;;21.00;62.61;100551.19;;;;-51
2021/06/15 12:25:10;;;;;;;4.87;2.68;;;;;;;21.00;62.66;100549.64;;;;-51
2021/06/15 12:28:10;;;;;;;4.02;2.85;;;;;;;21.00;62.59;100549.55;;;;-57
2021/06/15 12:31:10;;;;;;;4.25;2.63;;;;;;;21.00;62.60;100545.63;;;;-56
2021/06/15 12:34:10;;;;;;;4.51;2.79;;;;;;;21.00;62.61;100548.55;;;;-56
2021/06/15 12:37:10;;;;;;;4.58;2.86;;;;;;;20.99;62.54;100541.30;;;;-58
2021/06/15 12:40:10;;;;;;;5.01;3.15;;;;;;;20.99;62.60;100538.20;;;;-58
2021/06/15 12:43:10;;;;;;;3.43;2.79;;;;;;;20.99;62.54;100535.28;;;;-58
2021/06/15 12:46:10;;;;;;;3.73;2.72;;;;;;;20.99;62.54;100530.06;;;;-52
2021/06/15 12:49:10;;;;;;;4.86;3.04;;;;;;;20.97;62.61;100529.89;;;;-51
2021/06/15 12:52:10;;;;;;;5.35;3.43;;;;;;;21.00;62.71;100531.14;;;;-54
2021/06/15 12:55:10;;;;;;;9.43;4.04;;;;;;;21.01;62.66;100524.04;;;;-61
2021/06/15 12:58:11;;;;;;;6.57;3.79;;;;;;;21.02;62.75;100524.27;;;;-51
2021/06/15 13:01:10;;;;;;;7.38;4.51;;;;;;;21.03;62.86;100516.55;;;;-57
2021/06/15 13:04:10;;;;;;;8.17;4.72;;;;;;;21.04;62.75;100517.03;;;;-52
2021/06/15 13:07:10;;;;;;;10.25;5.65;;;;;;;21.05;62.85;100515.08;;;;-48
2021/06/15 13:10:10;;;;;;;19.69;9.38;;;;;;;21.07;62.75;100515.25;;;;-50
2021/06/15 13:13:10;;;;;;;12.49;6.65;;;;;;;21.06;62.98;100512.46;;;;-59
2021/06/15 13:16:10;;;;;;;12.56;6.85;;;;;;;21.09;62.94;100511.83;;;;-57
2021/06/15 13:19:10;;;;;;;16.98;6.89;;;;;;;21.08;62.91;100509.31;;;;-59
2021/06/15 13:22:10;;;;;;;12.88;7.29;;;;;;;21.09;62.97;100509.30;;;;-54
2021/06/15 13:25:10;;;;;;;11.72;6.81;;;;;;;21.10;63.04;100505.13;;;;-56
2021/06/15 13:28:12;;;;;;;13.23;6.99;;;;;;;21.11;63.00;100503.19;;;;-60
2021/06/15 13:31:10;;;;;;;12.69;6.99;;;;;;;21.12;63.02;100506.28;;;;-53
2021/06/15 13:34:10;;;;;;;12.55;6.94;;;;;;;21.13;63.09;100500.43;;;;-50
2021/06/15 13:37:10;;;;;;;13.60;6.53;;;;;;;21.14;63.15;100496.42;;;;-51
2021/06/15 13:40:10;;;;;;;10.89;6.44;;;;;;;21.15;63.06;100499.38;;;;-52
2021/06/15 13:43:10;;;;;;;10.85;6.42;;;;;;;21.15;62.96;100497.74;;;;-52
2021/06/15 13:46:10;;;;;;;16.47;7.65;;;;;;;21.16;63.16;100490.80;;;;-49
2021/06/15 13:49:10;;;;;;;22.21;9.66;;;;;;;21.17;62.95;100488.03;;;;-51
2021/06/15 13:52:11;;;;;;;18.85;8.61;;;;;;;21.18;63.10;100481.98;;;;-47
2021/06/15 13:55:10;;;;;;;21.98;10.22;;;;;;;21.19;63.12;100477.69;;;;-50
2021/06/15 13:58:13;;;;;;;25.84;11.95;;;;;;;21.21;63.09;100478.75;;;;-52
2021/06/15 14:01:10;;;;;;;23.10;10.33;;;;;;;21.22;63.17;100477.44;;;;-50
2021/06/15 14:04:10;;;;;;;18.05;10.43;;;;;;;21.22;63.17;100479.71;;;;-49
2021/06/15 14:07:10;;;;;;;19.13;10.50;;;;;;;21.22;63.22;100473.27;;;;-52
2021/06/15 14:10:10;;;;;;;21.17;10.91;;;;;;;21.23;63.17;100474.42;;;;-48
2021/06/15 14:13:10;;;;;;;19.83;10.61;;;;;;;21.23;63.22;100467.58;;;;-53
2021/06/15 14:16:10;;;;;;;22.37;10.91;;;;;;;21.24;63.23;100472.30;;;;-51
2021/06/15 14:19:10;;;;;;;15.51;9.75;;;;;;;21.24;63.17;100472.38;;;;-51
2021/06/15 14:22:10;;;;;;;18.52;10.46;;;;;;;21.24;63.21;100473.76;;;;-51
2021/06/15 14:25:10;;;;;;;16.24;9.97;;;;;;;21.25;63.08;100469.11;;;;-51
2021/06/15 14:28:10;;;;;;;19.69;10.47;;;;;;;21.26;63.10;100472.88;;;;-53
2021/06/15 14:31:10;;;;;;;17.47;10.21;;;;;;;21.26;63.18;100470.58;;;;-49
2021/06/15 14:34:10;;;;;;;19.12;10.11;;;;;;;21.26;63.16;100470.17;;;;-52
2021/06/15 14:37:10;;;;;;;16.85;10.02;;;;;;;21.27;63.10;100469.94;;;;-52
2021/06/15 14:40:10;;;;;;;18.91;10.09;;;;;;;21.25;63.03;100467.82;;;;-52
2021/06/15 14:43:10;;;;;;;16.01;9.84;;;;;;;21.25;63.19;100465.30;;;;-52
2021/06/15 14:46:10;;;;;;;18.37;10.00;;;;;;;21.26;63.11;100465.20;;;;-53
2021/06/15 14:49:10;;;;;;;17.23;10.01;;;;;;;21.26;63.10;100461.61;;;;-52
2021/06/15 14:52:10;;;;;;;20.63;10.90;;;;;;;21.26;63.12;100460.55;;;;-51
2021/06/15 14:55:10;;;;;;;23.23;10.96;;;;;;;21.26;63.09;100455.09;;;;-52
2021/06/15 14:58:10;;;;;;;25.30;11.46;;;;;;;21.27;63.23;100449.12;;;;-51
2021/06/15 15:01:10;;;;;;;21.99;11.68;;;;;;;21.30;63.12;100451.42;;;;-48
2021/06/15 15:04:10;;;;;;;17.89;11.13;;;;;;;21.31;63.00;100450.52;;;;-51
2021/06/15 15:07:10;;;;;;;22.88;11.41;;;;;;;21.30;63.10;100448.91;;;;-56
2021/06/15 15:10:10;;;;;;;25.11;11.17;;;;;;;21.30;63.17;100446.70;;;;-52
2021/06/15 15:13:10;;;;;;;22.12;11.41;;;;;;;21.31;63.16;100447.50;;;;-54
2021/06/15 15:16:12;;;;;;;20.92;11.06;;;;;;;21.31;63.09;100444.02;;;;-52
2021/06/15 15:19:10;;;;;;;22.16;11.34;;;;;;;21.32;63.03;100439.28;;;;-56
2021/06/15 15:22:11;;;;;;;22.95;11.35;;;;;;;21.31;63.13;100438.63;;;;-60
2021/06/15 15:25:10;;;;;;;19.87;11.28;;;;;;;21.32;63.14;100435.28;;;;-46
2021/06/15 15:28:11;;;;;;;22.66;11.28;;;;;;;21.33;63.10;100435.19;;;;-62
2021/06/15 15:31:10;;;;;;;18.78;10.85;;;;;;;21.34;63.13;100429.00;;;;-51
2021/06/15 15:34:10;;;;;;;20.67;11.32;;;;;;;21.34;63.18;100425.33;;;;-58
2021/06/15 15:37:10;;;;;;;20.23;10.80;;;;;;;21.35;63.18;100424.59;;;;-48
2021/06/15 15:40:10;;;;;;;21.86;10.62;;;;;;;21.35;63.22;100416.13;;;;-51
2021/06/15 15:43:10;;;;;;;19.28;10.80;;;;;;;21.36;63.11;100415.70;;;;-50
2021/06/15 15:46:10;;;;;;;19.71;10.98;;;;;;;21.37;63.18;100414.15;;;;-50
2021/06/15 15:49:13;;;;;;;17.99;10.51;;;;;;;21.37;63.10;100414.33;;;;-56
2021/06/15 15:52:10;;;;;;;21.02;10.90;;;;;;;21.37;63.10;100409.77;;;;-55
2021/06/15 15:55:10;;;;;;;17.59;10.21;;;;;;;21.38;63.02;100413.19;;;;-57
2021/06/15 15:58:10;;;;;;;19.78;10.77;;;;;;;21.39;63.11;100406.80;;;;-56
2021/06/15 16:01:10;;;;;;;17.22;10.19;;;;;;;21.39;63.04;100405.09;;;;-55
2021/06/15 16:04:10;;;;;;;17.59;9.67;;;;;;;21.40;63.06;100402.58;;;;-53
2021/06/15 16:07:10;;;;;;;15.90;10.13;;;;;;;21.40;63.10;100401.43;;;;-53
2021/06/15 16:10:10;;;;;;;15.77;10.07;;;;;;;21.41;62.92;100400.61;;;;-53
2021/06/15 16:13:10;;;;;;;16.90;9.74;;;;;;;21.42;62.98;100401.30;;;;-55
2021/06/15 16:16:11;;;;;;;15.20;9.65;;;;;;;21.42;63.04;100398.77;;;;-53
2021/06/15 16:19:10;;;;;;;16.68;9.73;;;;;;;21.43;63.03;100401.30;;;;-58
2021/06/15 16:22:15;;;;;;;14.54;9.85;;;;;;;21.44;63.00;100404.73;;;;-59
2021/06/15 16:25:10;;;;;;;14.03;9.54;;;;;;;21.43;63.02;100402.09;;;;-58
2021/06/15 16:28:10;;;;;;;17.85;10.26;;;;;;;21.45;62.91;100400.88;;;;-57
2021/06/15 16:31:10;;;;;;;16.81;10.15;;;;;;;21.43;62.95;100401.69;;;;-53
2021/06/15 16:34:10;;;;;;;15.01;9.51;;;;;;;21.44;63.00;100397.30;;;;-59
2021/06/15 16:37:10;;;;;;;18.49;9.71;;;;;;;21.43;62.98;100399.58;;;;-58
2021/06/15 16:40:10;;;;;;;18.20;9.88;;;;;;;21.43;63.00;100393.88;;;;-52